Pagina principale
METAR-TAF:

METAR-TAF

Aeroporti :

Toussus-le-Noble, Francia

latitudine: 48-46N, longitudine: 002-06E, altezza: 164 m

Osservazione

Il bollettino è stato emesso 17 minuti fa, alle 04:00 UTC
Vento 15 kt da nord/nord-est
Temperature 0°C
Umidità 51%
Pressione 1029 hPa
Visibilità 10 km o più
nessuna nube inferiore a 1500 m e nessun cumulonembo

METAR: LFPN 300400Z AUTO 03015KT CAVOK 00/M09 Q1029

Ora: 06:17 (04:17 UTC)

Previsione

Il bollettino è stato emesso 11 ore e 17 minuti fa, alle 17:00 UTC
Previsione valida dal 29 alle 18 UTC al 30 alle 03 UTC
Vento 15 kt da nord/nord-est con raffiche fino a 25 kt
Visibilità 10 km o più
nessuna nube inferiore a 1500 m e nessun cumulonembo
Temporaneamente
dal 29 alle 18 UTC al 29 alle 24 UTC
Vento 20 kt da nord/nord-est con raffiche fino a 35 kt

TAF: LFPN 291700Z 2918/3003 03015G25KT CAVOK TEMPO 2918/2924 03020G35KT

Osservazioni e previsioni meteorologiche di più di 4000 aeroporti (messaggi METAR e TAF).

Le stazioni disponibili sono rappresentate dai dischi gialli e rossi sulla carta.

Puntare il mouse per vedere il nome della stazione.

Clicca sopra per visualizzare le osservazioni e previsioni meteorologiche.

Per cambiare la mappa : fare clic sui pulsanti verdi con una croce nera per ingrandire, il pulsante verde con un trattino per diminuire, o sulla freccia verde per le mappe adiacenti.


METAR-TAF: